createdAt,value
2023-04-21T13:48:30.480Z,58.00
2023-04-21T13:50:30.451Z,58.00
2023-04-21T13:52:30.467Z,58.00
2023-04-21T13:54:30.691Z,59.00
2023-04-21T13:56:30.469Z,58.00
2023-04-21T13:58:30.455Z,57.00
2023-04-21T14:00:30.464Z,58.00
2023-04-21T14:02:30.633Z,58.00
2023-04-21T14:04:30.542Z,58.00
2023-04-21T14:06:30.466Z,57.00
2023-04-21T14:09:30.592Z,57.00
2023-04-21T14:11:30.492Z,57.00
2023-04-21T14:13:37.343Z,57.00
2023-04-21T14:15:30.501Z,58.00
2023-04-21T14:17:30.515Z,58.00
2023-04-21T14:19:30.742Z,58.00
2023-04-21T14:21:30.467Z,57.00
2023-04-21T14:23:30.554Z,57.00
2023-04-21T14:25:30.468Z,57.00
2023-04-21T14:27:30.475Z,57.00
2023-04-21T14:29:30.540Z,57.00
2023-04-21T14:31:30.568Z,56.00
2023-04-21T14:33:30.507Z,57.00
2023-04-21T14:35:30.486Z,57.00
2023-04-21T14:37:30.581Z,57.00
2023-04-21T14:39:30.515Z,57.00
2023-04-21T14:41:30.532Z,56.00
2023-04-21T14:43:30.488Z,56.00
2023-04-21T14:45:30.559Z,56.00
2023-04-21T14:47:30.553Z,58.00
2023-04-21T14:49:30.708Z,59.00
2023-04-21T14:51:31.532Z,58.00
2023-04-21T14:53:30.541Z,58.00
2023-04-21T14:55:30.640Z,57.00
2023-04-21T14:57:30.517Z,57.00
2023-04-21T14:59:30.537Z,58.00
2023-04-21T15:01:30.642Z,57.00
2023-04-21T15:03:30.606Z,57.00
2023-04-21T15:05:30.540Z,57.00
2023-04-21T15:07:30.534Z,57.00
2023-04-21T15:09:30.555Z,57.00
2023-04-21T15:11:30.550Z,57.00
2023-04-21T15:13:30.582Z,57.00
2023-04-21T15:15:30.529Z,56.00
2023-04-21T15:17:30.532Z,56.00
2023-04-21T15:19:30.513Z,54.00
2023-04-21T15:21:30.522Z,54.00
2023-04-21T15:23:30.828Z,56.00
2023-04-21T15:25:30.535Z,56.00
2023-04-21T15:27:30.604Z,56.00
2023-04-21T15:29:30.569Z,56.00
2023-04-21T15:31:30.545Z,56.00
2023-04-21T15:33:30.554Z,55.00
2023-04-21T15:35:30.523Z,55.00
2023-04-21T15:37:30.606Z,55.00
2023-04-21T15:39:30.565Z,56.00
2023-04-21T15:41:30.540Z,56.00
2023-04-21T15:43:30.573Z,55.00
2023-04-21T15:45:30.548Z,56.00
2023-04-21T15:47:30.628Z,55.00
2023-04-21T15:49:30.567Z,55.00
2023-04-21T15:51:30.575Z,56.00
2023-04-21T15:53:30.591Z,56.00
2023-04-21T15:55:30.709Z,56.00
2023-04-21T15:57:30.584Z,56.00
2023-04-21T15:59:30.764Z,56.00
2023-04-21T16:01:30.662Z,56.00
2023-04-21T16:03:30.754Z,56.00
2023-04-21T16:05:30.778Z,56.00
2023-04-21T16:07:30.581Z,56.00
2023-04-21T16:09:30.605Z,56.00
2023-04-21T16:11:30.601Z,55.00
2023-04-21T16:13:30.578Z,56.00
2023-04-21T16:15:30.736Z,56.00
2023-04-21T16:17:30.671Z,56.00
2023-04-21T16:19:30.700Z,56.00
2023-04-21T16:21:30.606Z,56.00
2023-04-21T16:23:30.588Z,55.00
2023-04-21T16:25:30.806Z,56.00
2023-04-21T16:27:30.636Z,56.00
2023-04-21T16:29:30.655Z,56.00
2023-04-21T16:31:30.665Z,56.00
2023-04-21T16:33:30.590Z,56.00
2023-04-21T16:35:30.647Z,55.00
2023-04-21T16:37:30.671Z,55.00
2023-04-21T16:39:30.620Z,56.00
2023-04-21T16:41:30.707Z,56.00
2023-04-21T16:43:30.658Z,56.00
2023-04-21T16:45:30.617Z,56.00
2023-04-21T16:47:30.659Z,56.00
2023-04-21T16:49:30.580Z,56.00
2023-04-21T16:51:30.578Z,56.00
2023-04-21T16:53:30.614Z,56.00
2023-04-21T16:55:30.620Z,56.00
2023-04-21T16:57:30.598Z,57.00
2023-04-21T16:59:31.538Z,56.00
2023-04-21T17:01:30.664Z,56.00
2023-04-21T17:03:30.796Z,56.00
2023-04-21T17:05:30.661Z,56.00
2023-04-21T17:07:30.664Z,57.00
2023-04-21T17:09:30.668Z,57.00
2023-04-21T17:11:30.687Z,57.00
2023-04-21T17:13:30.700Z,58.00
2023-04-21T17:15:30.739Z,58.00
2023-04-21T17:17:30.682Z,58.00
2023-04-21T17:19:30.685Z,58.00
2023-04-21T17:22:16.972Z,58.00
2023-04-21T17:24:17.183Z,58.00
2023-04-21T17:26:16.552Z,58.00
2023-04-21T17:28:16.359Z,58.00
2023-04-21T17:30:16.546Z,59.00
2023-04-21T17:32:16.981Z,59.00
2023-04-21T17:34:17.396Z,60.00
2023-04-21T17:36:16.416Z,60.00
2023-04-21T17:38:16.722Z,60.00
2023-04-21T17:40:16.900Z,60.00
2023-04-21T17:42:20.048Z,60.00
2023-04-21T17:44:16.365Z,60.00
2023-04-21T17:46:16.448Z,61.00
2023-04-21T17:48:16.477Z,61.00
2023-04-21T17:50:16.434Z,61.00
2023-04-21T17:52:17.092Z,61.00
2023-04-21T17:54:16.531Z,61.00
2023-04-21T17:56:16.452Z,62.00
2023-04-21T17:58:16.776Z,62.00
2023-04-21T18:00:17.406Z,62.00
2023-04-21T18:02:16.665Z,62.00
2023-04-21T18:04:16.653Z,62.00
2023-04-21T18:06:16.581Z,62.00
2023-04-21T18:08:17.546Z,62.00
2023-04-21T18:10:16.504Z,63.00
2023-04-21T18:12:18.581Z,63.00
2023-04-21T18:14:16.416Z,64.00
2023-04-21T18:16:16.414Z,65.00
2023-04-21T18:18:16.425Z,65.00
2023-04-21T18:20:16.390Z,65.00
2023-04-21T18:22:16.575Z,65.00
2023-04-21T18:24:17.968Z,66.00
2023-04-21T18:26:28.377Z,66.00
2023-04-21T18:28:28.526Z,67.00
2023-04-21T18:30:22.106Z,67.00
2023-04-21T18:32:29.143Z,67.00
2023-04-21T18:34:16.472Z,67.00
2023-04-21T18:36:16.370Z,67.00
2023-04-21T18:38:16.349Z,67.00
2023-04-21T18:40:16.356Z,67.00
2023-04-21T18:42:16.359Z,67.00
2023-04-21T18:44:16.372Z,66.00
2023-04-21T18:46:20.526Z,66.00
2023-04-21T18:48:16.401Z,66.00
2023-04-21T18:50:16.438Z,66.00
2023-04-21T18:52:16.408Z,67.00
2023-04-21T18:54:16.510Z,67.00
2023-04-21T18:56:16.628Z,67.00
2023-04-21T18:58:16.454Z,67.00
2023-04-21T19:00:16.444Z,68.00
2023-04-21T19:02:16.683Z,68.00
2023-04-21T19:04:16.582Z,68.00
2023-04-21T19:06:17.576Z,69.00
2023-04-21T19:08:18.264Z,69.00
2023-04-21T19:10:16.453Z,69.00
2023-04-21T19:12:16.417Z,69.00
2023-04-21T19:14:16.454Z,69.00
2023-04-21T19:16:16.808Z,69.00
2023-04-21T19:18:16.377Z,69.00
2023-04-21T19:20:16.617Z,69.00
2023-04-21T19:22:16.433Z,69.00
2023-04-21T19:24:16.378Z,70.00
2023-04-21T19:26:16.503Z,70.00
2023-04-21T19:28:16.503Z,70.00
2023-04-21T19:30:16.407Z,70.00
2023-04-21T19:32:16.465Z,71.00
2023-04-21T19:34:18.613Z,71.00
2023-04-21T19:36:16.418Z,71.00
2023-04-21T19:38:16.564Z,71.00
2023-04-21T19:40:16.491Z,72.00
2023-04-21T19:42:20.639Z,72.00
2023-04-21T19:44:16.903Z,72.00
2023-04-21T19:46:16.562Z,72.00
2023-04-21T19:48:16.601Z,72.00
2023-04-21T19:50:16.428Z,72.00
2023-04-21T19:54:16.452Z,72.00
2023-04-21T19:56:17.348Z,72.00
2023-04-21T19:58:28.564Z,72.00
2023-04-21T20:00:16.544Z,72.00
2023-04-21T20:04:16.576Z,72.00
2023-04-21T20:08:16.574Z,72.00
2023-04-21T20:10:16.528Z,72.00
2023-04-21T20:14:16.416Z,72.00
2023-04-21T20:16:27.930Z,72.00
2023-04-21T20:18:28.043Z,72.00
2023-04-21T20:20:27.966Z,72.00
2023-04-21T20:22:27.991Z,73.00
2023-04-21T20:24:27.886Z,73.00
2023-04-21T20:26:27.857Z,73.00
2023-04-21T20:28:27.934Z,72.00
2023-04-21T20:30:27.935Z,72.00
2023-04-21T20:32:27.889Z,73.00
2023-04-21T20:34:27.962Z,73.00
2023-04-21T20:36:27.881Z,73.00
2023-04-21T20:38:27.889Z,73.00
2023-04-21T20:40:27.890Z,73.00
2023-04-21T20:42:29.288Z,73.00
2023-04-21T20:44:27.930Z,73.00
2023-04-21T20:46:27.889Z,73.00
2023-04-21T20:48:28.173Z,73.00
2023-04-21T20:50:27.905Z,73.00
2023-04-21T20:52:28.019Z,73.00
2023-04-21T20:54:28.220Z,73.00
2023-04-21T20:56:28.757Z,73.00
2023-04-21T20:58:27.930Z,73.00
2023-04-21T21:00:28.149Z,72.00
2023-04-21T21:02:28.102Z,72.00
2023-04-21T21:04:29.494Z,72.00
2023-04-21T21:06:27.921Z,72.00
2023-04-21T21:08:28.051Z,72.00
2023-04-21T21:10:27.925Z,72.00
2023-04-21T21:12:28.040Z,72.00
2023-04-21T21:14:27.958Z,72.00
2023-04-21T21:16:28.068Z,72.00
2023-04-21T21:18:27.919Z,72.00
2023-04-21T21:20:28.341Z,72.00
2023-04-21T21:22:28.130Z,72.00
2023-04-21T21:24:27.932Z,72.00
2023-04-21T21:26:27.972Z,72.00
2023-04-21T21:28:28.680Z,72.00
2023-04-21T21:30:31.781Z,72.00
2023-04-21T21:32:27.938Z,72.00
2023-04-21T21:34:33.608Z,73.00
2023-04-21T21:36:27.959Z,73.00
2023-04-21T21:39:28.026Z,73.00
2023-04-21T21:41:28.419Z,72.00
2023-04-21T21:43:28.031Z,72.00
2023-04-21T21:45:27.941Z,73.00
2023-04-21T21:47:28.070Z,73.00
2023-04-21T21:49:27.918Z,73.00
2023-04-21T21:51:30.174Z,73.00
2023-04-21T21:53:27.973Z,73.00
2023-04-21T21:55:32.982Z,73.00
2023-04-21T21:57:27.936Z,74.00
2023-04-21T21:59:28.060Z,74.00
2023-04-21T22:01:30.785Z,74.00
2023-04-21T22:03:28.235Z,74.00
2023-04-21T22:05:28.114Z,74.00
2023-04-21T22:07:28.345Z,74.00
2023-04-21T22:09:27.941Z,74.00
2023-04-21T22:11:28.196Z,74.00
2023-04-21T22:13:28.002Z,74.00
2023-04-21T22:15:30.853Z,74.00
2023-04-21T22:17:28.169Z,75.00
2023-04-21T22:19:27.928Z,75.00
2023-04-21T22:21:27.940Z,75.00
2023-04-21T22:23:27.951Z,75.00
2023-04-21T22:25:27.960Z,75.00
2023-04-21T22:27:28.186Z,75.00
2023-04-21T22:29:27.990Z,75.00
2023-04-21T22:31:27.984Z,74.00
2023-04-21T22:33:27.983Z,74.00
2023-04-21T22:35:27.922Z,75.00
2023-04-21T22:37:29.836Z,75.00
2023-04-21T22:39:28.049Z,75.00
2023-04-21T22:41:27.990Z,75.00
2023-04-21T22:43:28.444Z,75.00
2023-04-21T22:45:28.109Z,75.00
2023-04-21T22:47:30.031Z,75.00
2023-04-21T22:49:30.281Z,75.00
2023-04-21T22:51:28.051Z,75.00
2023-04-21T22:53:27.945Z,75.00
2023-04-21T22:55:32.914Z,74.00
2023-04-21T22:57:32.014Z,74.00
2023-04-21T22:59:28.588Z,74.00
2023-04-21T23:01:28.152Z,74.00
2023-04-21T23:03:28.231Z,74.00
2023-04-21T23:05:27.957Z,73.00
2023-04-21T23:07:28.003Z,73.00
2023-04-21T23:09:28.236Z,73.00
2023-04-21T23:11:28.002Z,73.00
2023-04-21T23:13:28.086Z,73.00
2023-04-21T23:15:28.136Z,73.00
2023-04-21T23:17:28.080Z,73.00
2023-04-21T23:19:28.110Z,72.00
2023-04-21T23:21:28.036Z,72.00
2023-04-21T23:23:27.974Z,72.00
2023-04-21T23:25:28.078Z,72.00
2023-04-21T23:27:27.972Z,72.00
2023-04-21T23:29:28.045Z,72.00
2023-04-21T23:31:28.097Z,71.00
2023-04-21T23:33:28.032Z,71.00
2023-04-21T23:35:28.017Z,71.00
2023-04-21T23:37:28.301Z,71.00
2023-04-21T23:39:27.998Z,71.00
2023-04-21T23:41:28.021Z,71.00
2023-04-21T23:43:27.978Z,71.00
2023-04-21T23:45:28.117Z,71.00
2023-04-21T23:47:28.124Z,71.00
2023-04-21T23:49:31.741Z,71.00
2023-04-21T23:51:28.093Z,72.00
2023-04-21T23:53:28.070Z,72.00
2023-04-21T23:55:28.107Z,72.00
2023-04-21T23:57:28.048Z,72.00
2023-04-21T23:59:28.097Z,73.00
